MMCL/CUL METAR and TAF weather

Enter ICAO airport designator
Station Type Date Time Source
MMCL METAR 2020/09/21 04:40 UTC NOAA

MMCL 210440Z 00000KT 10SM FEW100 30/25 A2988 RMK 8/030


Station Type Date Time Source
MMCL Decoded METAR 2020/09/21 04:40 UTC NOAA

Culiacan, Sin., Mexico (MMCL) 24-49N 107-24W
Sep 21, 2020 - 12:40 AM EDT / 2020.09.21 0440 UTC
Wind: Calm:0
Visibility: 10 mile(s):0
Sky conditions: mostly clear
Temperature: 86 F (30 C)
Heat index: 96.8 F (36.0 C):1
Dew Point: 77 F (25 C)
Relative Humidity: 74%
Pressure (altimeter): 29.88 in. Hg (1011 hPa)
ob: MMCL 210440Z 00000KT 10SM FEW100 30/25 A2988 RMK 8/030
cycle: 4

Station Type Date Time Source
MMCL TAF 2020/09/21 06:47 UTC NOAA

TAF MMCL 210341Z 2106/2206 22005KT P6SM SCT070
FM212000 22010KT P6SM SCT030 BKN090
FM220300 24005KT P6SM SKC

Example: see airport list